sensor_id;sensor_type;location;lat;lon;timestamp;P1;durP1;ratioP1;P2;durP2;ratioP2
51594;SDS011;37677;53.254;6.594;2023-07-31T00:01:10;5.38;;;3.20;;
51594;SDS011;37677;53.254;6.594;2023-07-31T00:03:43;5.82;;;3.00;;
51594;SDS011;37677;53.254;6.594;2023-07-31T00:06:32;6.03;;;3.10;;
51594;SDS011;37677;53.254;6.594;2023-07-31T00:09:21;4.22;;;3.10;;
51594;SDS011;37677;53.254;6.594;2023-07-31T00:11:47;4.95;;;3.38;;
51594;SDS011;37677;53.254;6.594;2023-07-31T00:14:13;7.53;;;3.38;;
51594;SDS011;37677;53.254;6.594;2023-07-31T00:16:45;4.57;;;2.97;;
51594;SDS011;37677;53.254;6.594;2023-07-31T00:19:35;9.52;;;3.28;;
51594;SDS011;37677;53.254;6.594;2023-07-31T00:25:57;6.47;;;3.40;;
51594;SDS011;37677;53.254;6.594;2023-07-31T00:28:34;6.25;;;3.33;;
51594;SDS011;37677;53.254;6.594;2023-07-31T00:33:53;8.90;;;3.90;;
51594;SDS011;37677;53.254;6.594;2023-07-31T00:36:21;6.30;;;3.17;;
51594;SDS011;37677;53.254;6.594;2023-07-31T00:38:49;3.53;;;2.72;;
51594;SDS011;37677;53.254;6.594;2023-07-31T00:41:18;5.35;;;3.28;;
51594;SDS011;37677;53.254;6.594;2023-07-31T00:43:44;6.63;;;3.22;;
51594;SDS011;37677;53.254;6.594;2023-07-31T00:46:10;5.85;;;2.97;;
51594;SDS011;37677;53.254;6.594;2023-07-31T00:51:36;18.83;;;5.22;;
51594;SDS011;37677;53.254;6.594;2023-07-31T00:54:12;6.05;;;3.33;;
51594;SDS011;37677;53.254;6.594;2023-07-31T00:56:41;7.28;;;2.95;;
51594;SDS011;37677;53.254;6.594;2023-07-31T01:01:56;4.57;;;3.80;;
51594;SDS011;37677;53.254;6.594;2023-07-31T01:04:44;6.25;;;3.95;;
51594;SDS011;37677;53.254;6.594;2023-07-31T01:14:12;3.80;;;2.80;;
51594;SDS011;37677;53.254;6.594;2023-07-31T01:20:26;3.60;;;3.30;;
51594;SDS011;37677;53.254;6.594;2023-07-31T01:47:28;4.22;;;2.88;;
51594;SDS011;37677;53.254;6.594;2023-07-31T02:04:37;3.42;;;2.35;;
51594;SDS011;37677;53.254;6.594;2023-07-31T02:07:07;9.10;;;3.60;;
51594;SDS011;37677;53.254;6.594;2023-07-31T02:09:33;2.60;;;2.40;;
51594;SDS011;37677;53.254;6.594;2023-07-31T02:12:17;5.43;;;3.00;;
51594;SDS011;37677;53.254;6.594;2023-07-31T02:14:44;4.47;;;2.85;;
51594;SDS011;37677;53.254;6.594;2023-07-31T02:17:28;2.95;;;2.72;;
51594;SDS011;37677;53.254;6.594;2023-07-31T02:19:57;2.88;;;2.17;;
51594;SDS011;37677;53.254;6.594;2023-07-31T02:27:47;2.67;;;2.40;;
51594;SDS011;37677;53.254;6.594;2023-07-31T02:30:13;3.78;;;2.55;;
51594;SDS011;37677;53.254;6.594;2023-07-31T02:32:41;4.47;;;2.97;;
51594;SDS011;37677;53.254;6.594;2023-07-31T02:35:07;3.28;;;2.40;;
51594;SDS011;37677;53.254;6.594;2023-07-31T02:37:40;2.90;;;1.75;;
51594;SDS011;37677;53.254;6.594;2023-07-31T02:40:15;5.25;;;2.50;;
51594;SDS011;37677;53.254;6.594;2023-07-31T02:45:17;2.75;;;1.85;;
51594;SDS011;37677;53.254;6.594;2023-07-31T02:47:43;3.58;;;2.67;;
51594;SDS011;37677;53.254;6.594;2023-07-31T02:50:09;3.90;;;1.80;;
51594;SDS011;37677;53.254;6.594;2023-07-31T02:52:37;4.97;;;2.00;;
51594;SDS011;37677;53.254;6.594;2023-07-31T02:55:03;4.25;;;2.33;;
51594;SDS011;37677;53.254;6.594;2023-07-31T02:57:29;6.78;;;2.08;;
51594;SDS011;37677;53.254;6.594;2023-07-31T02:59:57;2.70;;;1.80;;
51594;SDS011;37677;53.254;6.594;2023-07-31T03:02:23;3.95;;;2.45;;
51594;SDS011;37677;53.254;6.594;2023-07-31T03:07:23;10.90;;;2.85;;
51594;SDS011;37677;53.254;6.594;2023-07-31T03:10:07;5.15;;;2.10;;
51594;SDS011;37677;53.254;6.594;2023-07-31T03:12:33;5.00;;;2.33;;
51594;SDS011;37677;53.254;6.594;2023-07-31T03:15:17;3.08;;;2.03;;
51594;SDS011;37677;53.254;6.594;2023-07-31T03:20:19;3.40;;;2.15;;
51594;SDS011;37677;53.254;6.594;2023-07-31T03:22:45;4.15;;;2.75;;
51594;SDS011;37677;53.254;6.594;2023-07-31T03:25:27;4.03;;;1.70;;
51594;SDS011;37677;53.254;6.594;2023-07-31T03:27:54;3.55;;;1.80;;
51594;SDS011;37677;53.254;6.594;2023-07-31T03:30:48;3.22;;;1.55;;
51594;SDS011;37677;53.254;6.594;2023-07-31T03:33:17;3.45;;;1.95;;
51594;SDS011;37677;53.254;6.594;2023-07-31T03:40:53;4.38;;;1.60;;
51594;SDS011;37677;53.254;6.594;2023-07-31T03:43:23;5.65;;;1.50;;
51594;SDS011;37677;53.254;6.594;2023-07-31T03:45:50;3.47;;;1.63;;
51594;SDS011;37677;53.254;6.594;2023-07-31T03:48:16;3.17;;;1.63;;
51594;SDS011;37677;53.254;6.594;2023-07-31T03:50:42;2.70;;;1.60;;
51594;SDS011;37677;53.254;6.594;2023-07-31T03:53:08;2.28;;;1.67;;
51594;SDS011;37677;53.254;6.594;2023-07-31T03:55:34;3.83;;;1.65;;
51594;SDS011;37677;53.254;6.594;2023-07-31T03:58:01;2.55;;;1.50;;
51594;SDS011;37677;53.254;6.594;2023-07-31T04:00:27;3.72;;;1.75;;
51594;SDS011;37677;53.254;6.594;2023-07-31T04:02:53;2.83;;;1.73;;
51594;SDS011;37677;53.254;6.594;2023-07-31T04:05:29;2.92;;;1.83;;
51594;SDS011;37677;53.254;6.594;2023-07-31T04:07:57;3.17;;;1.50;;
51594;SDS011;37677;53.254;6.594;2023-07-31T04:10:39;2.50;;;1.50;;
51594;SDS011;37677;53.254;6.594;2023-07-31T04:13:05;4.60;;;1.80;;
51594;SDS011;37677;53.254;6.594;2023-07-31T04:15:31;4.78;;;1.90;;
51594;SDS011;37677;53.254;6.594;2023-07-31T04:17:57;3.65;;;2.00;;
51594;SDS011;37677;53.254;6.594;2023-07-31T04:20:27;4.00;;;1.77;;
51594;SDS011;37677;53.254;6.594;2023-07-31T04:22:57;3.58;;;1.60;;
51594;SDS011;37677;53.254;6.594;2023-07-31T04:25:29;2.42;;;1.40;;
51594;SDS011;37677;53.254;6.594;2023-07-31T04:27:56;2.92;;;1.85;;
51594;SDS011;37677;53.254;6.594;2023-07-31T04:30:32;3.15;;;1.50;;
51594;SDS011;37677;53.254;6.594;2023-07-31T04:33:07;2.55;;;1.35;;
51594;SDS011;37677;53.254;6.594;2023-07-31T04:38:18;3.70;;;1.52;;
51594;SDS011;37677;53.254;6.594;2023-07-31T04:40:44;3.85;;;1.63;;
51594;SDS011;37677;53.254;6.594;2023-07-31T04:43:10;3.53;;;1.50;;
51594;SDS011;37677;53.254;6.594;2023-07-31T04:45:36;4.35;;;1.70;;
51594;SDS011;37677;53.254;6.594;2023-07-31T04:48:03;4.60;;;1.42;;
51594;SDS011;37677;53.254;6.594;2023-07-31T04:50:29;3.95;;;1.65;;
51594;SDS011;37677;53.254;6.594;2023-07-31T04:53:07;2.08;;;1.10;;
51594;SDS011;37677;53.254;6.594;2023-07-31T04:55:33;1.85;;;1.10;;
51594;SDS011;37677;53.254;6.594;2023-07-31T04:57:59;1.58;;;1.08;;
51594;SDS011;37677;53.254;6.594;2023-07-31T05:00:26;2.78;;;1.40;;
51594;SDS011;37677;53.254;6.594;2023-07-31T05:02:52;2.00;;;1.17;;
51594;SDS011;37677;53.254;6.594;2023-07-31T05:05:27;3.03;;;1.38;;
51594;SDS011;37677;53.254;6.594;2023-07-31T05:07:54;4.90;;;1.33;;
51594;SDS011;37677;53.254;6.594;2023-07-31T05:10:27;2.88;;;1.30;;
51594;SDS011;37677;53.254;6.594;2023-07-31T05:12:57;2.72;;;1.30;;
51594;SDS011;37677;53.254;6.594;2023-07-31T05:15:23;2.85;;;1.27;;
51594;SDS011;37677;53.254;6.594;2023-07-31T05:20:23;5.68;;;1.30;;
51594;SDS011;37677;53.254;6.594;2023-07-31T05:23:07;4.03;;;1.45;;
51594;SDS011;37677;53.254;6.594;2023-07-31T05:25:39;2.45;;;1.27;;
51594;SDS011;37677;53.254;6.594;2023-07-31T05:28:05;2.22;;;1.00;;
51594;SDS011;37677;53.254;6.594;2023-07-31T05:30:33;3.78;;;1.20;;
51594;SDS011;37677;53.254;6.594;2023-07-31T05:49:38;2.63;;;1.15;;
51594;SDS011;37677;53.254;6.594;2023-07-31T05:58:48;1.48;;;1.10;;
51594;SDS011;37677;53.254;6.594;2023-07-31T06:04:25;2.83;;;1.20;;
51594;SDS011;37677;53.254;6.594;2023-07-31T06:06:57;1.52;;;1.27;;
51594;SDS011;37677;53.254;6.594;2023-07-31T06:12:28;2.95;;;1.30;;
51594;SDS011;37677;53.254;6.594;2023-07-31T06:14:55;2.58;;;1.40;;
51594;SDS011;37677;53.254;6.594;2023-07-31T06:20:42;4.22;;;1.60;;
51594;SDS011;37677;53.254;6.594;2023-07-31T06:34:38;3.95;;;2.25;;
51594;SDS011;37677;53.254;6.594;2023-07-31T06:37:07;4.72;;;2.70;;
51594;SDS011;37677;53.254;6.594;2023-07-31T06:39:33;7.47;;;3.17;;
51594;SDS011;37677;53.254;6.594;2023-07-31T06:42:00;8.57;;;4.25;;
51594;SDS011;37677;53.254;6.594;2023-07-31T06:44:36;11.90;;;4.90;;
51594;SDS011;37677;53.254;6.594;2023-07-31T06:47:02;13.07;;;5.10;;
51594;SDS011;37677;53.254;6.594;2023-07-31T06:49:28;19.67;;;6.20;;
51594;SDS011;37677;53.254;6.594;2023-07-31T06:51:55;20.88;;;6.78;;
51594;SDS011;37677;53.254;6.594;2023-07-31T06:54:21;24.00;;;7.55;;
51594;SDS011;37677;53.254;6.594;2023-07-31T06:56:47;36.97;;;8.18;;
51594;SDS011;37677;53.254;6.594;2023-07-31T06:59:13;26.17;;;8.15;;
51594;SDS011;37677;53.254;6.594;2023-07-31T07:01:39;25.88;;;8.60;;
51594;SDS011;37677;53.254;6.594;2023-07-31T07:04:05;27.88;;;8.63;;
51594;SDS011;37677;53.254;6.594;2023-07-31T07:06:33;31.08;;;9.73;;
51594;SDS011;37677;53.254;6.594;2023-07-31T07:08:59;30.77;;;9.73;;
51594;SDS011;37677;53.254;6.594;2023-07-31T07:11:25;36.83;;;10.73;;
51594;SDS011;37677;53.254;6.594;2023-07-31T07:13:51;28.70;;;9.30;;
51594;SDS011;37677;53.254;6.594;2023-07-31T07:16:19;32.80;;;10.07;;
51594;SDS011;37677;53.254;6.594;2023-07-31T07:18:45;32.15;;;10.02;;
51594;SDS011;37677;53.254;6.594;2023-07-31T07:21:11;33.50;;;9.63;;
51594;SDS011;37677;53.254;6.594;2023-07-31T07:23:42;22.95;;;8.05;;
51594;SDS011;37677;53.254;6.594;2023-07-31T07:26:08;29.17;;;9.15;;
51594;SDS011;37677;53.254;6.594;2023-07-31T07:31:28;31.63;;;9.27;;
51594;SDS011;37677;53.254;6.594;2023-07-31T07:34:04;27.35;;;8.00;;
51594;SDS011;37677;53.254;6.594;2023-07-31T07:36:35;30.02;;;9.35;;
51594;SDS011;37677;53.254;6.594;2023-07-31T07:39:05;26.10;;;7.72;;
51594;SDS011;37677;53.254;6.594;2023-07-31T07:41:31;21.95;;;7.75;;
51594;SDS011;37677;53.254;6.594;2023-07-31T07:43:59;26.83;;;7.93;;
51594;SDS011;37677;53.254;6.594;2023-07-31T07:46:30;20.88;;;7.30;;
51594;SDS011;37677;53.254;6.594;2023-07-31T07:49:03;27.55;;;8.23;;
51594;SDS011;37677;53.254;6.594;2023-07-31T07:51:29;36.75;;;9.55;;
51594;SDS011;37677;53.254;6.594;2023-07-31T07:54:18;32.92;;;9.85;;
51594;SDS011;37677;53.254;6.594;2023-07-31T07:57:04;26.88;;;9.48;;
51594;SDS011;37677;53.254;6.594;2023-07-31T08:02:13;26.80;;;8.95;;
51594;SDS011;37677;53.254;6.594;2023-07-31T08:04:42;17.45;;;6.45;;
51594;SDS011;37677;53.254;6.594;2023-07-31T08:07:10;12.82;;;4.10;;
51594;SDS011;37677;53.254;6.594;2023-07-31T08:09:40;6.95;;;3.58;;
51594;SDS011;37677;53.254;6.594;2023-07-31T08:12:06;5.57;;;2.33;;
51594;SDS011;37677;53.254;6.594;2023-07-31T08:14:35;4.15;;;2.25;;
51594;SDS011;37677;53.254;6.594;2023-07-31T08:17:01;5.25;;;2.33;;
51594;SDS011;37677;53.254;6.594;2023-07-31T08:19:27;4.32;;;1.90;;
51594;SDS011;37677;53.254;6.594;2023-07-31T08:21:54;5.55;;;2.10;;
51594;SDS011;37677;53.254;6.594;2023-07-31T08:24:20;4.38;;;2.00;;
51594;SDS011;37677;53.254;6.594;2023-07-31T08:26:46;5.65;;;2.42;;
51594;SDS011;37677;53.254;6.594;2023-07-31T08:29:13;3.78;;;2.20;;
51594;SDS011;37677;53.254;6.594;2023-07-31T08:31:42;6.20;;;2.28;;
51594;SDS011;37677;53.254;6.594;2023-07-31T08:34:08;2.75;;;1.60;;
51594;SDS011;37677;53.254;6.594;2023-07-31T08:36:37;5.30;;;2.20;;
51594;SDS011;37677;53.254;6.594;2023-07-31T08:39:11;4.57;;;2.22;;
51594;SDS011;37677;53.254;6.594;2023-07-31T08:44:50;3.45;;;2.30;;
51594;SDS011;37677;53.254;6.594;2023-07-31T08:47:16;4.50;;;2.10;;
51594;SDS011;37677;53.254;6.594;2023-07-31T08:50:15;3.47;;;1.70;;
51594;SDS011;37677;53.254;6.594;2023-07-31T08:55:33;2.13;;;1.70;;
51594;SDS011;37677;53.254;6.594;2023-07-31T08:58:00;4.28;;;1.70;;
51594;SDS011;37677;53.254;6.594;2023-07-31T09:00:29;2.72;;;1.70;;
51594;SDS011;37677;53.254;6.594;2023-07-31T09:03:03;2.33;;;1.38;;
51594;SDS011;37677;53.254;6.594;2023-07-31T09:05:30;2.85;;;1.50;;
51594;SDS011;37677;53.254;6.594;2023-07-31T09:07:56;3.95;;;1.45;;
51594;SDS011;37677;53.254;6.594;2023-07-31T09:10:23;2.63;;;1.58;;
51594;SDS011;37677;53.254;6.594;2023-07-31T09:12:50;3.42;;;1.40;;
51594;SDS011;37677;53.254;6.594;2023-07-31T09:15:17;3.08;;;1.70;;
51594;SDS011;37677;53.254;6.594;2023-07-31T09:17:43;1.83;;;1.30;;
51594;SDS011;37677;53.254;6.594;2023-07-31T09:20:17;3.55;;;1.73;;
51594;SDS011;37677;53.254;6.594;2023-07-31T09:25:49;1.75;;;1.30;;
51594;SDS011;37677;53.254;6.594;2023-07-31T09:28:33;1.45;;;1.10;;
51594;SDS011;37677;53.254;6.594;2023-07-31T09:30:59;2.33;;;1.25;;
51594;SDS011;37677;53.254;6.594;2023-07-31T09:33:26;2.80;;;1.20;;
51594;SDS011;37677;53.254;6.594;2023-07-31T09:35:58;2.00;;;1.05;;
51594;SDS011;37677;53.254;6.594;2023-07-31T09:38:27;1.55;;;1.23;;
51594;SDS011;37677;53.254;6.594;2023-07-31T09:40:53;2.03;;;1.30;;
51594;SDS011;37677;53.254;6.594;2023-07-31T09:43:21;2.45;;;1.25;;
51594;SDS011;37677;53.254;6.594;2023-07-31T09:45:58;1.58;;;1.15;;
51594;SDS011;37677;53.254;6.594;2023-07-31T09:48:31;2.58;;;1.40;;
51594;SDS011;37677;53.254;6.594;2023-07-31T09:51:07;2.65;;;1.30;;
51594;SDS011;37677;53.254;6.594;2023-07-31T09:56:48;2.17;;;1.02;;
51594;SDS011;37677;53.254;6.594;2023-07-31T09:59:17;2.80;;;0.98;;
51594;SDS011;37677;53.254;6.594;2023-07-31T10:01:45;1.25;;;0.90;;
51594;SDS011;37677;53.254;6.594;2023-07-31T10:04:14;3.72;;;1.00;;
51594;SDS011;37677;53.254;6.594;2023-07-31T10:09:54;0.98;;;0.80;;
51594;SDS011;37677;53.254;6.594;2023-07-31T10:12:21;0.65;;;0.63;;
51594;SDS011;37677;53.254;6.594;2023-07-31T10:15:03;0.90;;;0.70;;
51594;SDS011;37677;53.254;6.594;2023-07-31T10:17:32;1.30;;;0.80;;
51594;SDS011;37677;53.254;6.594;2023-07-31T10:20:43;2.50;;;0.60;;
51594;SDS011;37677;53.254;6.594;2023-07-31T10:23:33;10.25;;;0.90;;
51594;SDS011;37677;53.254;6.594;2023-07-31T10:26:00;1.45;;;0.70;;
51594;SDS011;37677;53.254;6.594;2023-07-31T10:28:28;1.33;;;0.70;;
51594;SDS011;37677;53.254;6.594;2023-07-31T10:30:55;1.35;;;0.70;;
51594;SDS011;37677;53.254;6.594;2023-07-31T10:33:21;1.63;;;1.10;;
51594;SDS011;37677;53.254;6.594;2023-07-31T10:35:47;0.65;;;0.60;;
51594;SDS011;37677;53.254;6.594;2023-07-31T10:38:18;1.08;;;0.68;;
51594;SDS011;37677;53.254;6.594;2023-07-31T10:40:44;4.07;;;1.00;;
51594;SDS011;37677;53.254;6.594;2023-07-31T10:43:14;8.20;;;1.30;;
51594;SDS011;37677;53.254;6.594;2023-07-31T10:45:50;2.63;;;1.08;;
51594;SDS011;37677;53.254;6.594;2023-07-31T10:48:16;6.88;;;1.23;;
51594;SDS011;37677;53.254;6.594;2023-07-31T10:50:49;4.63;;;1.67;;
51594;SDS011;37677;53.254;6.594;2023-07-31T10:53:26;1.13;;;0.85;;
51594;SDS011;37677;53.254;6.594;2023-07-31T10:55:52;2.33;;;1.30;;
51594;SDS011;37677;53.254;6.594;2023-07-31T10:58:20;3.90;;;1.25;;
51594;SDS011;37677;53.254;6.594;2023-07-31T11:00:47;4.15;;;1.20;;
51594;SDS011;37677;53.254;6.594;2023-07-31T11:03:14;3.20;;;1.40;;
51594;SDS011;37677;53.254;6.594;2023-07-31T11:05:40;3.38;;;1.30;;
51594;SDS011;37677;53.254;6.594;2023-07-31T11:08:10;4.85;;;1.70;;
51594;SDS011;37677;53.254;6.594;2023-07-31T11:10:36;4.22;;;1.40;;
51594;SDS011;37677;53.254;6.594;2023-07-31T11:13:04;2.50;;;1.40;;
51594;SDS011;37677;53.254;6.594;2023-07-31T11:15:30;1.67;;;1.20;;
51594;SDS011;37677;53.254;6.594;2023-07-31T11:17:56;3.00;;;1.20;;
51594;SDS011;37677;53.254;6.594;2023-07-31T11:20:25;1.95;;;1.20;;
51594;SDS011;37677;53.254;6.594;2023-07-31T11:22:57;2.30;;;1.15;;
51594;SDS011;37677;53.254;6.594;2023-07-31T11:25:23;1.45;;;0.98;;
51594;SDS011;37677;53.254;6.594;2023-07-31T11:27:49;1.20;;;0.90;;
51594;SDS011;37677;53.254;6.594;2023-07-31T11:30:19;2.55;;;1.10;;
51594;SDS011;37677;53.254;6.594;2023-07-31T11:32:45;2.67;;;1.20;;
51594;SDS011;37677;53.254;6.594;2023-07-31T11:35:14;1.60;;;1.05;;
51594;SDS011;37677;53.254;6.594;2023-07-31T11:37:44;1.60;;;1.10;;
51594;SDS011;37677;53.254;6.594;2023-07-31T11:40:10;2.25;;;1.00;;
51594;SDS011;37677;53.254;6.594;2023-07-31T11:42:37;2.50;;;1.17;;
51594;SDS011;37677;53.254;6.594;2023-07-31T11:45:07;5.20;;;1.40;;
51594;SDS011;37677;53.254;6.594;2023-07-31T11:47:35;9.45;;;1.40;;
51594;SDS011;37677;53.254;6.594;2023-07-31T11:50:02;3.90;;;1.52;;
51594;SDS011;37677;53.254;6.594;2023-07-31T11:52:29;3.15;;;1.10;;
51594;SDS011;37677;53.254;6.594;2023-07-31T11:54:56;2.80;;;1.30;;
51594;SDS011;37677;53.254;6.594;2023-07-31T11:57:22;3.05;;;1.30;;
51594;SDS011;37677;53.254;6.594;2023-07-31T11:59:49;3.17;;;1.48;;
51594;SDS011;37677;53.254;6.594;2023-07-31T12:02:15;3.67;;;1.90;;
51594;SDS011;37677;53.254;6.594;2023-07-31T12:04:42;4.05;;;1.80;;
51594;SDS011;37677;53.254;6.594;2023-07-31T12:07:09;4.63;;;1.95;;
51594;SDS011;37677;53.254;6.594;2023-07-31T12:09:35;4.57;;;1.90;;
51594;SDS011;37677;53.254;6.594;2023-07-31T12:12:01;4.18;;;1.40;;
51594;SDS011;37677;53.254;6.594;2023-07-31T12:14:29;4.03;;;1.80;;
51594;SDS011;37677;53.254;6.594;2023-07-31T12:16:56;4.63;;;1.90;;
51594;SDS011;37677;53.254;6.594;2023-07-31T12:19:25;6.20;;;2.42;;
51594;SDS011;37677;53.254;6.594;2023-07-31T12:21:58;3.40;;;1.60;;
51594;SDS011;37677;53.254;6.594;2023-07-31T12:24:27;4.97;;;2.15;;
51594;SDS011;37677;53.254;6.594;2023-07-31T12:26:56;2.72;;;1.40;;
51594;SDS011;37677;53.254;6.594;2023-07-31T12:29:22;3.60;;;1.55;;
51594;SDS011;37677;53.254;6.594;2023-07-31T12:31:48;3.75;;;2.00;;
51594;SDS011;37677;53.254;6.594;2023-07-31T12:34:17;2.72;;;1.73;;
51594;SDS011;37677;53.254;6.594;2023-07-31T12:36:48;4.50;;;2.00;;
51594;SDS011;37677;53.254;6.594;2023-07-31T12:39:15;3.63;;;1.92;;
51594;SDS011;37677;53.254;6.594;2023-07-31T12:41:41;3.03;;;1.70;;
51594;SDS011;37677;53.254;6.594;2023-07-31T12:44:09;2.97;;;1.85;;
51594;SDS011;37677;53.254;6.594;2023-07-31T12:46:35;3.58;;;1.90;;
51594;SDS011;37677;53.254;6.594;2023-07-31T12:49:04;2.47;;;1.85;;
51594;SDS011;37677;53.254;6.594;2023-07-31T12:51:32;4.97;;;2.03;;
51594;SDS011;37677;53.254;6.594;2023-07-31T12:54:01;3.50;;;1.98;;
51594;SDS011;37677;53.254;6.594;2023-07-31T12:56:30;3.90;;;1.70;;
51594;SDS011;37677;53.254;6.594;2023-07-31T12:58:56;2.67;;;1.48;;
51594;SDS011;37677;53.254;6.594;2023-07-31T13:01:23;3.97;;;1.50;;
51594;SDS011;37677;53.254;6.594;2023-07-31T13:03:52;4.00;;;1.70;;
51594;SDS011;37677;53.254;6.594;2023-07-31T13:06:21;4.68;;;1.70;;
51594;SDS011;37677;53.254;6.594;2023-07-31T13:08:47;6.53;;;1.83;;
51594;SDS011;37677;53.254;6.594;2023-07-31T13:11:13;4.20;;;1.70;;
51594;SDS011;37677;53.254;6.594;2023-07-31T13:13:42;3.75;;;1.58;;
51594;SDS011;37677;53.254;6.594;2023-07-31T13:16:09;4.68;;;2.10;;
51594;SDS011;37677;53.254;6.594;2023-07-31T13:18:35;5.60;;;1.98;;
51594;SDS011;37677;53.254;6.594;2023-07-31T13:21:01;7.82;;;2.28;;
51594;SDS011;37677;53.254;6.594;2023-07-31T13:23:27;4.95;;;1.92;;
51594;SDS011;37677;53.254;6.594;2023-07-31T13:25:53;4.15;;;2.30;;
51594;SDS011;37677;53.254;6.594;2023-07-31T13:28:19;9.13;;;2.85;;
51594;SDS011;37677;53.254;6.594;2023-07-31T13:30:45;10.32;;;2.53;;
51594;SDS011;37677;53.254;6.594;2023-07-31T13:33:11;9.25;;;2.53;;
51594;SDS011;37677;53.254;6.594;2023-07-31T13:35:37;8.82;;;2.50;;
51594;SDS011;37677;53.254;6.594;2023-07-31T13:38:03;8.95;;;3.03;;
51594;SDS011;37677;53.254;6.594;2023-07-31T13:40:30;5.40;;;2.60;;
51594;SDS011;37677;53.254;6.594;2023-07-31T13:42:56;11.43;;;2.75;;
51594;SDS011;37677;53.254;6.594;2023-07-31T13:45:25;7.45;;;2.65;;
51594;SDS011;37677;53.254;6.594;2023-07-31T13:47:51;11.07;;;3.40;;
51594;SDS011;37677;53.254;6.594;2023-07-31T13:50:19;11.68;;;2.92;;
51594;SDS011;37677;53.254;6.594;2023-07-31T13:52:52;6.38;;;2.53;;
51594;SDS011;37677;53.254;6.594;2023-07-31T13:55:26;13.27;;;3.70;;
51594;SDS011;37677;53.254;6.594;2023-07-31T13:57:59;10.30;;;3.05;;
51594;SDS011;37677;53.254;6.594;2023-07-31T14:00:25;10.18;;;3.33;;
51594;SDS011;37677;53.254;6.594;2023-07-31T14:02:57;5.85;;;2.92;;
51594;SDS011;37677;53.254;6.594;2023-07-31T14:05:23;5.68;;;2.70;;
51594;SDS011;37677;53.254;6.594;2023-07-31T14:07:52;8.43;;;3.15;;
51594;SDS011;37677;53.254;6.594;2023-07-31T14:10:21;7.20;;;3.25;;
51594;SDS011;37677;53.254;6.594;2023-07-31T14:12:56;5.57;;;3.17;;
51594;SDS011;37677;53.254;6.594;2023-07-31T14:15:30;8.23;;;3.00;;
51594;SDS011;37677;53.254;6.594;2023-07-31T14:18:00;10.32;;;3.00;;
51594;SDS011;37677;53.254;6.594;2023-07-31T14:20:27;8.45;;;3.13;;
51594;SDS011;37677;53.254;6.594;2023-07-31T14:22:53;7.47;;;3.25;;
51594;SDS011;37677;53.254;6.594;2023-07-31T14:25:26;9.57;;;3.67;;
51594;SDS011;37677;53.254;6.594;2023-07-31T14:28:03;5.70;;;3.10;;
51594;SDS011;37677;53.254;6.594;2023-07-31T14:30:30;8.27;;;3.20;;
51594;SDS011;37677;53.254;6.594;2023-07-31T14:33:06;7.88;;;3.30;;
51594;SDS011;37677;53.254;6.594;2023-07-31T14:35:32;10.65;;;3.60;;
51594;SDS011;37677;53.254;6.594;2023-07-31T14:38:01;8.25;;;3.60;;
51594;SDS011;37677;53.254;6.594;2023-07-31T14:40:30;8.43;;;4.40;;
51594;SDS011;37677;53.254;6.594;2023-07-31T14:42:56;9.20;;;4.03;;
51594;SDS011;37677;53.254;6.594;2023-07-31T14:45:22;8.95;;;4.20;;
51594;SDS011;37677;53.254;6.594;2023-07-31T14:47:51;12.52;;;4.20;;
51594;SDS011;37677;53.254;6.594;2023-07-31T14:50:19;8.60;;;4.18;;
51594;SDS011;37677;53.254;6.594;2023-07-31T14:52:51;12.45;;;5.05;;
51594;SDS011;37677;53.254;6.594;2023-07-31T14:55:17;14.95;;;4.70;;
51594;SDS011;37677;53.254;6.594;2023-07-31T14:57:44;10.15;;;4.85;;
51594;SDS011;37677;53.254;6.594;2023-07-31T15:00:13;10.02;;;4.20;;
51594;SDS011;37677;53.254;6.594;2023-07-31T15:02:42;12.80;;;5.10;;
51594;SDS011;37677;53.254;6.594;2023-07-31T15:05:37;9.27;;;4.07;;
51594;SDS011;37677;53.254;6.594;2023-07-31T15:08:09;12.18;;;4.38;;
51594;SDS011;37677;53.254;6.594;2023-07-31T15:10:38;11.68;;;4.60;;
51594;SDS011;37677;53.254;6.594;2023-07-31T15:13:04;10.55;;;4.38;;
51594;SDS011;37677;53.254;6.594;2023-07-31T15:15:30;9.98;;;4.15;;
51594;SDS011;37677;53.254;6.594;2023-07-31T15:17:56;10.82;;;4.45;;
51594;SDS011;37677;53.254;6.594;2023-07-31T15:20:43;8.63;;;4.25;;
51594;SDS011;37677;53.254;6.594;2023-07-31T15:23:35;11.30;;;4.47;;
51594;SDS011;37677;53.254;6.594;2023-07-31T15:26:21;12.98;;;5.10;;
51594;SDS011;37677;53.254;6.594;2023-07-31T15:29:05;12.65;;;4.07;;
51594;SDS011;37677;53.254;6.594;2023-07-31T15:35:29;11.07;;;3.95;;
51594;SDS011;37677;53.254;6.594;2023-07-31T15:41:19;11.55;;;4.40;;
51594;SDS011;37677;53.254;6.594;2023-07-31T15:43:47;10.85;;;4.30;;
51594;SDS011;37677;53.254;6.594;2023-07-31T15:46:23;12.50;;;4.40;;
51594;SDS011;37677;53.254;6.594;2023-07-31T15:48:52;14.07;;;4.47;;
51594;SDS011;37677;53.254;6.594;2023-07-31T15:51:50;12.95;;;4.70;;
51594;SDS011;37677;53.254;6.594;2023-07-31T15:54:34;13.70;;;4.00;;
51594;SDS011;37677;53.254;6.594;2023-07-31T15:57:18;13.45;;;4.25;;
51594;SDS011;37677;53.254;6.594;2023-07-31T15:59:45;10.70;;;4.30;;
51594;SDS011;37677;53.254;6.594;2023-07-31T16:02:13;9.25;;;3.78;;
51594;SDS011;37677;53.254;6.594;2023-07-31T16:04:40;10.60;;;3.75;;
51594;SDS011;37677;53.254;6.594;2023-07-31T16:07:15;13.48;;;4.35;;
51594;SDS011;37677;53.254;6.594;2023-07-31T16:09:49;11.50;;;4.05;;
51594;SDS011;37677;53.254;6.594;2023-07-31T16:12:15;10.98;;;4.93;;
51594;SDS011;37677;53.254;6.594;2023-07-31T16:14:41;12.68;;;4.05;;
51594;SDS011;37677;53.254;6.594;2023-07-31T16:17:12;13.93;;;3.67;;
51594;SDS011;37677;53.254;6.594;2023-07-31T16:19:57;7.30;;;3.40;;
51594;SDS011;37677;53.254;6.594;2023-07-31T16:22:43;8.88;;;3.40;;
51594;SDS011;37677;53.254;6.594;2023-07-31T16:27:46;9.65;;;3.45;;
51594;SDS011;37677;53.254;6.594;2023-07-31T16:30:33;9.00;;;3.30;;
51594;SDS011;37677;53.254;6.594;2023-07-31T16:33:01;8.07;;;3.20;;
51594;SDS011;37677;53.254;6.594;2023-07-31T16:35:51;9.73;;;3.25;;
51594;SDS011;37677;53.254;6.594;2023-07-31T16:41:20;11.50;;;4.00;;
51594;SDS011;37677;53.254;6.594;2023-07-31T16:43:59;10.57;;;3.70;;
51594;SDS011;37677;53.254;6.594;2023-07-31T16:46:33;7.70;;;3.22;;
51594;SDS011;37677;53.254;6.594;2023-07-31T16:49:32;9.18;;;3.47;;
51594;SDS011;37677;53.254;6.594;2023-07-31T16:52:23;9.40;;;3.72;;
51594;SDS011;37677;53.254;6.594;2023-07-31T16:58:01;7.45;;;2.90;;
51594;SDS011;37677;53.254;6.594;2023-07-31T17:00:32;10.40;;;3.20;;
51594;SDS011;37677;53.254;6.594;2023-07-31T17:03:16;10.07;;;3.28;;
51594;SDS011;37677;53.254;6.594;2023-07-31T17:09:14;9.77;;;3.17;;
51594;SDS011;37677;53.254;6.594;2023-07-31T17:15:24;11.00;;;3.08;;
51594;SDS011;37677;53.254;6.594;2023-07-31T17:18:15;10.70;;;3.10;;
51594;SDS011;37677;53.254;6.594;2023-07-31T17:21:05;7.88;;;3.25;;
51594;SDS011;37677;53.254;6.594;2023-07-31T17:23:51;11.60;;;3.05;;
51594;SDS011;37677;53.254;6.594;2023-07-31T17:29:48;9.57;;;3.35;;
51594;SDS011;37677;53.254;6.594;2023-07-31T17:32:15;10.35;;;3.88;;
51594;SDS011;37677;53.254;6.594;2023-07-31T17:34:59;8.63;;;3.10;;
51594;SDS011;37677;53.254;6.594;2023-07-31T17:37:41;10.55;;;3.05;;
51594;SDS011;37677;53.254;6.594;2023-07-31T17:40:23;9.00;;;3.10;;
51594;SDS011;37677;53.254;6.594;2023-07-31T17:46:16;10.80;;;4.00;;
51594;SDS011;37677;53.254;6.594;2023-07-31T17:51:51;8.57;;;3.63;;
51594;SDS011;37677;53.254;6.594;2023-07-31T17:54:27;9.15;;;3.15;;
51594;SDS011;37677;53.254;6.594;2023-07-31T18:00:28;9.65;;;3.70;;
51594;SDS011;37677;53.254;6.594;2023-07-31T18:02:58;6.43;;;3.53;;
51594;SDS011;37677;53.254;6.594;2023-07-31T18:06:06;7.28;;;2.97;;
51594;SDS011;37677;53.254;6.594;2023-07-31T18:12:02;10.82;;;3.83;;
51594;SDS011;37677;53.254;6.594;2023-07-31T18:17:45;8.13;;;3.25;;
51594;SDS011;37677;53.254;6.594;2023-07-31T18:20:34;6.88;;;2.40;;